createdAt,value
2018-10-17T00:00:08.589Z,95.40
2018-10-17T00:02:36.710Z,95.30
2018-10-17T00:05:05.756Z,95.30
2018-10-17T00:07:33.837Z,95.50
2018-10-17T00:10:01.993Z,95.50
2018-10-17T00:12:30.117Z,95.60
2018-10-17T00:14:58.237Z,96.00
2018-10-17T00:17:26.377Z,96.20
2018-10-17T00:19:54.511Z,96.70
2018-10-17T00:22:22.633Z,96.90
2018-10-17T00:24:50.762Z,97.00
2018-10-17T00:27:18.926Z,97.10
2018-10-17T00:29:47.058Z,97.30
2018-10-17T00:32:15.219Z,97.20
2018-10-17T00:34:43.362Z,97.10
2018-10-17T00:37:11.527Z,96.90
2018-10-17T00:39:39.621Z,96.90
2018-10-17T00:42:07.749Z,96.80
2018-10-17T00:44:35.881Z,96.90
2018-10-17T00:47:04.077Z,97.00
2018-10-17T00:49:32.141Z,97.00
2018-10-17T00:52:00.280Z,97.30
2018-10-17T00:54:28.396Z,97.30
2018-10-17T00:56:56.546Z,97.50
2018-10-17T00:59:24.685Z,97.60
2018-10-17T01:01:52.817Z,97.30
2018-10-17T01:04:20.962Z,97.00
2018-10-17T01:06:49.095Z,97.30
2018-10-17T01:09:17.229Z,97.70
2018-10-17T01:11:45.371Z,97.90
2018-10-17T01:14:13.477Z,98.00
2018-10-17T01:16:41.634Z,98.20
2018-10-17T01:19:09.790Z,98.30
2018-10-17T01:21:38.224Z,98.30
2018-10-17T01:24:06.458Z,98.30
2018-10-17T01:26:34.570Z,98.30
2018-10-17T01:29:02.708Z,98.30
2018-10-17T01:31:30.821Z,98.30
2018-10-17T01:33:58.973Z,98.50
2018-10-17T01:36:27.121Z,98.60
2018-10-17T01:38:55.255Z,98.50
2018-10-17T01:41:23.405Z,98.40
2018-10-17T01:43:51.538Z,98.40
2018-10-17T01:46:19.695Z,98.40
2018-10-17T01:48:47.839Z,98.30
2018-10-17T01:51:15.993Z,98.30
2018-10-17T01:53:44.142Z,98.50
2018-10-17T01:56:12.316Z,98.50
2018-10-17T01:58:40.461Z,98.70
2018-10-17T02:01:08.693Z,98.80
2018-10-17T02:03:36.779Z,98.80
2018-10-17T02:06:05.725Z,98.90
2018-10-17T02:08:33.866Z,98.90
2018-10-17T02:11:02.080Z,98.90
2018-10-17T02:13:30.142Z,98.90
2018-10-17T02:15:58.301Z,98.70
2018-10-17T02:18:26.430Z,98.80
2018-10-17T02:20:54.579Z,98.80
2018-10-17T02:23:22.753Z,98.90
2018-10-17T02:25:50.908Z,98.70
2018-10-17T02:28:19.065Z,98.70
2018-10-17T02:30:47.211Z,98.80
2018-10-17T02:33:15.353Z,99.00
2018-10-17T02:35:43.521Z,99.00
2018-10-17T02:38:11.671Z,99.20
2018-10-17T02:40:39.817Z,98.90
2018-10-17T02:43:07.996Z,98.80
2018-10-17T02:45:36.101Z,98.50
2018-10-17T02:48:04.246Z,98.90
2018-10-17T02:50:32.401Z,98.50
2018-10-17T02:53:00.823Z,98.30
2018-10-17T02:55:28.910Z,98.40
2018-10-17T02:57:57.073Z,99.00
2018-10-17T03:00:25.213Z,99.10
2018-10-17T03:02:53.381Z,99.20
2018-10-17T03:05:21.539Z,99.10
2018-10-17T03:07:49.690Z,99.20
2018-10-17T03:10:17.835Z,99.40
2018-10-17T03:12:45.974Z,99.60
2018-10-17T03:15:14.119Z,99.60
2018-10-17T03:17:42.303Z,99.80
2018-10-17T03:20:11.081Z,99.90
2018-10-17T03:22:39.265Z,99.90
2018-10-17T03:25:08.218Z,99.90
2018-10-17T03:27:36.340Z,99.90
2018-10-17T03:30:04.698Z,99.90
2018-10-17T03:32:32.852Z,99.90
2018-10-17T03:35:01.035Z,99.90
2018-10-17T03:37:29.165Z,99.90
2018-10-17T03:39:57.305Z,99.90
2018-10-17T03:42:25.488Z,99.90
2018-10-17T03:44:53.655Z,99.90
2018-10-17T03:47:21.829Z,99.90
2018-10-17T03:49:50.088Z,99.90
2018-10-17T03:52:18.172Z,99.90
2018-10-17T03:54:46.325Z,99.90
2018-10-17T03:57:14.526Z,99.90
2018-10-17T03:59:42.831Z,99.90
2018-10-17T04:02:10.973Z,99.90
2018-10-17T04:04:40.130Z,99.90
2018-10-17T04:07:08.327Z,99.90
2018-10-17T04:09:36.579Z,99.90
2018-10-17T04:12:04.803Z,99.90
2018-10-17T04:14:33.021Z,99.90
2018-10-17T04:17:01.231Z,99.90
2018-10-17T04:19:29.478Z,99.90
2018-10-17T04:21:57.673Z,99.90
2018-10-17T04:24:25.846Z,99.90
2018-10-17T04:26:54.023Z,99.90
2018-10-17T04:29:22.192Z,99.90
2018-10-17T04:31:50.378Z,99.90
2018-10-17T04:34:18.622Z,99.90
2018-10-17T04:36:46.826Z,99.90
2018-10-17T04:39:15.007Z,99.90
2018-10-17T04:41:43.181Z,99.90
2018-10-17T04:44:12.207Z,99.90
2018-10-17T04:46:40.361Z,99.90
2018-10-17T04:49:09.223Z,99.90
2018-10-17T04:51:37.347Z,99.90
2018-10-17T04:54:06.110Z,99.90
2018-10-17T04:56:34.334Z,99.90
2018-10-17T04:59:02.828Z,99.90
2018-10-17T05:01:31.004Z,99.90
2018-10-17T05:03:59.130Z,99.90
2018-10-17T05:06:27.264Z,99.90
2018-10-17T05:08:55.429Z,99.90
2018-10-17T05:11:23.602Z,99.90
2018-10-17T05:13:52.630Z,99.90
2018-10-17T05:16:21.287Z,99.90
2018-10-17T05:18:49.415Z,99.90
2018-10-17T05:21:17.553Z,99.90
2018-10-17T05:23:45.706Z,99.90
2018-10-17T05:26:13.867Z,99.90
2018-10-17T05:28:42.006Z,99.90
2018-10-17T05:31:10.268Z,99.90
2018-10-17T05:33:38.523Z,99.90
2018-10-17T05:36:06.713Z,99.90
2018-10-17T05:38:34.890Z,99.90
2018-10-17T05:41:03.062Z,99.90
2018-10-17T05:43:31.279Z,99.90
2018-10-17T05:45:59.459Z,99.90
2018-10-17T05:48:27.657Z,99.90
2018-10-17T05:50:55.851Z,99.90
2018-10-17T05:53:24.112Z,99.90
2018-10-17T05:55:52.307Z,99.90
2018-10-17T05:58:20.569Z,99.90
2018-10-17T06:00:48.746Z,99.90
2018-10-17T06:03:23.289Z,99.90
2018-10-17T06:05:51.473Z,99.90
2018-10-17T06:08:19.712Z,99.90
2018-10-17T06:10:47.927Z,99.90
2018-10-17T06:13:16.432Z,99.90
2018-10-17T06:15:44.573Z,99.90
2018-10-17T06:18:12.752Z,99.90
2018-10-17T06:20:40.981Z,99.90
2018-10-17T06:23:09.201Z,99.90
2018-10-17T06:25:37.339Z,99.90
2018-10-17T06:28:05.590Z,99.90
2018-10-17T06:30:33.732Z,99.90
2018-10-17T06:33:01.918Z,99.90
2018-10-17T06:35:30.166Z,99.90
2018-10-17T06:37:58.413Z,99.90
2018-10-17T06:40:26.609Z,99.90
2018-10-17T06:42:54.826Z,99.90
2018-10-17T06:45:22.980Z,99.70
2018-10-17T06:47:51.128Z,99.50
2018-10-17T06:50:19.309Z,99.10
2018-10-17T06:52:47.478Z,98.80
2018-10-17T06:55:15.862Z,98.40
2018-10-17T06:57:43.919Z,97.90
2018-10-17T07:00:12.198Z,97.60
2018-10-17T07:02:40.381Z,97.00
2018-10-17T07:05:09.643Z,96.40
2018-10-17T07:07:37.755Z,95.80
2018-10-17T07:10:06.042Z,95.10
2018-10-17T07:12:34.200Z,94.50
2018-10-17T07:15:02.427Z,94.00
2018-10-17T07:17:30.590Z,93.50
2018-10-17T07:19:58.762Z,93.00
2018-10-17T07:22:26.922Z,92.30
2018-10-17T07:24:55.280Z,91.80
2018-10-17T07:27:23.416Z,91.40
2018-10-17T07:29:51.820Z,91.00
2018-10-17T07:32:19.761Z,91.40
2018-10-17T07:34:47.954Z,91.10
2018-10-17T07:37:16.287Z,90.40
2018-10-17T07:39:44.474Z,90.00
2018-10-17T07:42:12.739Z,87.90
2018-10-17T07:44:40.812Z,86.80
2018-10-17T07:47:08.969Z,86.40
2018-10-17T07:49:37.134Z,85.50
2018-10-17T07:52:05.633Z,86.30
2018-10-17T07:54:33.815Z,86.40
2018-10-17T07:57:01.993Z,87.20
2018-10-17T07:59:30.187Z,88.30
2018-10-17T08:01:58.399Z,87.40
2018-10-17T08:04:26.570Z,84.80
2018-10-17T08:06:54.738Z,83.10
2018-10-17T08:09:22.931Z,81.80
2018-10-17T08:11:51.093Z,81.60
2018-10-17T08:14:19.417Z,81.90
2018-10-17T08:16:47.485Z,81.20
2018-10-17T08:19:15.680Z,81.10
2018-10-17T08:21:43.882Z,80.70
2018-10-17T08:24:12.177Z,80.70
2018-10-17T08:26:40.281Z,80.50
2018-10-17T08:29:08.469Z,80.60
2018-10-17T08:31:36.718Z,79.30
2018-10-17T08:34:05.034Z,79.60
2018-10-17T08:36:33.444Z,80.00
2018-10-17T08:39:01.410Z,80.40
2018-10-17T08:41:29.595Z,78.30
2018-10-17T08:43:57.834Z,78.50
2018-10-17T08:46:25.963Z,77.50
2018-10-17T08:48:54.122Z,78.20
2018-10-17T08:51:22.286Z,78.80
2018-10-17T08:53:50.426Z,77.20
2018-10-17T08:56:18.762Z,76.40
2018-10-17T08:58:46.899Z,76.70
2018-10-17T09:01:15.071Z,75.20
2018-10-17T09:03:43.223Z,75.60
2018-10-17T09:06:11.465Z,77.20
2018-10-17T09:08:39.584Z,75.10
2018-10-17T09:11:07.825Z,75.10
2018-10-17T09:13:36.065Z,74.80
2018-10-17T09:16:04.359Z,73.40
2018-10-17T09:18:32.451Z,73.30
2018-10-17T09:21:00.845Z,72.70
2018-10-17T09:23:28.774Z,73.70
2018-10-17T09:25:56.935Z,72.90
2018-10-17T09:28:25.109Z,72.00
2018-10-17T09:30:53.267Z,70.60
2018-10-17T09:33:21.465Z,70.20
2018-10-17T09:35:49.836Z,70.00
2018-10-17T09:38:17.844Z,69.80
2018-10-17T09:40:46.035Z,68.10
2018-10-17T09:43:14.209Z,66.40
2018-10-17T09:45:42.367Z,66.50
2018-10-17T09:48:10.545Z,66.30
2018-10-17T09:50:38.706Z,65.10
2018-10-17T09:53:06.986Z,64.10
2018-10-17T09:55:35.138Z,66.00
2018-10-17T09:58:03.657Z,65.90
2018-10-17T10:00:37.294Z,64.70
2018-10-17T10:03:05.464Z,62.20
2018-10-17T10:05:33.599Z,62.80
2018-10-17T10:08:01.757Z,62.60
2018-10-17T10:10:29.916Z,63.70
2018-10-17T10:12:58.076Z,61.70
2018-10-17T10:15:26.244Z,60.80
2018-10-17T10:17:54.451Z,62.10
2018-10-17T10:20:22.602Z,61.10
2018-10-17T10:22:50.756Z,61.90
2018-10-17T10:25:18.993Z,59.90
2018-10-17T10:27:47.131Z,58.40
2018-10-17T10:35:05.829Z,57.50
2018-10-17T10:37:33.994Z,57.90
2018-10-17T10:40:02.244Z,58.50
2018-10-17T10:42:30.295Z,57.50
2018-10-17T10:44:58.432Z,55.60
2018-10-17T10:47:26.578Z,56.60
2018-10-17T10:49:54.797Z,57.50
2018-10-17T10:52:22.936Z,56.00
2018-10-17T10:54:51.126Z,55.70
2018-10-17T10:57:19.283Z,56.00
2018-10-17T10:59:47.446Z,56.20
2018-10-17T11:02:15.662Z,55.90
2018-10-17T11:04:43.860Z,56.30
2018-10-17T11:07:11.936Z,56.10
2018-10-17T11:09:40.087Z,55.10
2018-10-17T11:12:08.281Z,54.80
2018-10-17T11:14:36.740Z,54.10
2018-10-17T11:17:04.831Z,53.10
2018-10-17T11:19:33.012Z,54.00
2018-10-17T11:22:01.285Z,53.40
2018-10-17T11:24:29.368Z,52.00
2018-10-17T11:26:57.538Z,52.70
2018-10-17T11:29:25.809Z,52.50
2018-10-17T11:31:54.068Z,51.70
2018-10-17T11:34:22.107Z,52.80
2018-10-17T11:36:50.334Z,52.60
2018-10-17T11:39:18.465Z,52.20
2018-10-17T11:41:46.640Z,52.10
2018-10-17T11:44:14.802Z,51.30
2018-10-17T11:46:42.987Z,52.00
2018-10-17T11:49:11.242Z,51.70
2018-10-17T11:51:39.411Z,52.50
2018-10-17T11:54:07.581Z,52.00
2018-10-17T11:56:35.745Z,52.50
2018-10-17T11:59:04.036Z,51.10
2018-10-17T12:01:32.149Z,51.10
2018-10-17T12:04:00.518Z,52.40
2018-10-17T12:06:28.671Z,51.70
2018-10-17T12:08:56.778Z,50.20
2018-10-17T12:11:25.037Z,49.30
2018-10-17T12:13:53.155Z,49.00
2018-10-17T12:16:21.375Z,49.90
2018-10-17T12:18:49.813Z,50.90
2018-10-17T12:21:18.098Z,51.10
2018-10-17T12:23:46.194Z,50.50
2018-10-17T12:26:14.376Z,50.60
2018-10-17T12:28:42.633Z,50.80
2018-10-17T12:31:11.107Z,49.90
2018-10-17T12:33:39.302Z,49.60
2018-10-17T12:36:07.558Z,51.00
2018-10-17T12:38:35.758Z,50.10
2018-10-17T12:41:04.163Z,49.90
2018-10-17T12:43:32.135Z,51.40
2018-10-17T12:46:00.373Z,50.40
2018-10-17T12:48:28.483Z,49.60
2018-10-17T12:50:56.646Z,50.10
2018-10-17T12:53:24.840Z,49.00
2018-10-17T12:55:53.044Z,50.50
2018-10-17T12:58:21.174Z,49.40
2018-10-17T13:00:49.359Z,50.10
2018-10-17T13:03:17.523Z,50.40
2018-10-17T13:05:45.694Z,50.90
2018-10-17T13:08:13.862Z,50.70
2018-10-17T13:10:42.052Z,50.90
2018-10-17T13:13:10.411Z,51.40
2018-10-17T13:15:45.331Z,51.20
2018-10-17T13:18:13.491Z,52.60
2018-10-17T13:20:41.649Z,52.20
2018-10-17T13:23:09.893Z,51.50
2018-10-17T13:25:38.005Z,51.90
2018-10-17T13:28:06.216Z,51.90
2018-10-17T13:30:34.358Z,52.30
2018-10-17T13:33:02.526Z,52.00
2018-10-17T13:35:31.071Z,52.20
2018-10-17T13:37:59.237Z,52.10
2018-10-17T13:40:27.423Z,53.10
2018-10-17T13:42:55.653Z,53.00
2018-10-17T13:45:23.810Z,52.90
2018-10-17T13:47:51.984Z,53.00
2018-10-17T13:50:20.163Z,54.60
2018-10-17T13:52:48.353Z,53.00
2018-10-17T13:55:16.577Z,53.80
2018-10-17T13:57:44.751Z,53.70
2018-10-17T14:00:13.419Z,53.90
2018-10-17T14:02:42.709Z,53.30
2018-10-17T14:05:10.887Z,54.00
2018-10-17T14:07:39.114Z,54.50
2018-10-17T14:10:07.686Z,55.10
2018-10-17T14:12:36.239Z,55.30
2018-10-17T14:15:04.648Z,55.50
2018-10-17T14:17:32.808Z,54.80
2018-10-17T14:20:01.098Z,55.60
2018-10-17T14:22:29.525Z,55.60
2018-10-17T14:24:57.940Z,55.10
2018-10-17T14:27:26.199Z,54.10
2018-10-17T14:29:54.383Z,55.20
2018-10-17T14:32:23.161Z,55.90
2018-10-17T14:34:51.359Z,56.30
2018-10-17T14:37:19.613Z,55.70
2018-10-17T14:39:47.794Z,56.30
2018-10-17T14:42:16.182Z,55.80
2018-10-17T14:44:44.283Z,55.80
2018-10-17T14:47:12.463Z,56.50
2018-10-17T14:49:40.662Z,57.00
2018-10-17T14:52:08.868Z,56.30
2018-10-17T14:54:37.010Z,56.20
2018-10-17T14:57:05.470Z,56.30
2018-10-17T14:59:33.607Z,56.60
2018-10-17T15:02:01.811Z,57.60
2018-10-17T15:04:29.994Z,57.50
2018-10-17T15:06:58.196Z,57.80
2018-10-17T15:09:26.621Z,57.70
2018-10-17T15:11:55.247Z,58.60
2018-10-17T15:14:23.235Z,58.90
2018-10-17T15:16:51.472Z,59.00
2018-10-17T15:19:19.592Z,59.40
2018-10-17T15:21:47.753Z,59.70
2018-10-17T15:24:16.033Z,59.70
2018-10-17T15:26:44.139Z,60.10
2018-10-17T15:29:12.334Z,60.60
2018-10-17T15:31:40.570Z,60.80
2018-10-17T15:34:08.716Z,60.60
2018-10-17T15:36:36.878Z,61.20
2018-10-17T15:39:07.406Z,61.10
2018-10-17T15:41:35.494Z,61.00
2018-10-17T15:44:03.658Z,62.00
2018-10-17T15:46:31.859Z,61.60
2018-10-17T15:49:00.048Z,61.20
2018-10-17T15:51:28.248Z,61.60
2018-10-17T15:53:56.441Z,62.30
2018-10-17T15:56:24.886Z,61.50
2018-10-17T15:58:53.059Z,62.90
2018-10-17T16:01:21.237Z,62.40
2018-10-17T16:03:49.424Z,62.00
2018-10-17T16:06:17.693Z,62.10
2018-10-17T16:08:45.759Z,62.80
2018-10-17T16:11:13.926Z,62.20
2018-10-17T16:13:42.084Z,63.00
2018-10-17T16:16:10.250Z,63.80
2018-10-17T16:18:38.378Z,64.40
2018-10-17T16:21:06.535Z,64.20
2018-10-17T16:23:34.702Z,64.70
2018-10-17T16:26:02.865Z,64.20
2018-10-17T16:28:31.019Z,64.60
2018-10-17T16:30:59.228Z,65.70
2018-10-17T16:33:27.346Z,65.40
2018-10-17T16:35:55.584Z,66.70
2018-10-17T16:38:23.687Z,66.20
2018-10-17T16:40:51.921Z,66.60
2018-10-17T16:43:20.032Z,67.20
2018-10-17T16:45:48.222Z,67.00
2018-10-17T16:48:16.573Z,67.20
2018-10-17T16:50:44.801Z,68.20
2018-10-17T16:53:12.786Z,67.90
2018-10-17T16:55:40.941Z,67.60
2018-10-17T16:58:09.148Z,68.00
2018-10-17T17:00:37.271Z,67.70
2018-10-17T17:03:05.505Z,68.00
2018-10-17T17:05:33.598Z,68.80
2018-10-17T17:08:01.775Z,69.30
2018-10-17T17:10:29.978Z,69.10
2018-10-17T17:12:58.135Z,69.70
2018-10-17T17:15:26.329Z,70.30
2018-10-17T17:17:54.530Z,70.60
2018-10-17T17:20:22.696Z,70.90
2018-10-17T17:22:50.913Z,71.20
2018-10-17T17:25:19.062Z,72.00
2018-10-17T17:27:47.278Z,72.00
2018-10-17T17:30:16.827Z,72.20
2018-10-17T17:32:45.482Z,72.70
2018-10-17T17:35:16.715Z,73.10
2018-10-17T17:37:44.891Z,72.80
2018-10-17T17:40:13.996Z,73.70
2018-10-17T17:42:42.167Z,74.60
2018-10-17T17:45:10.531Z,75.30
2018-10-17T17:47:38.914Z,75.00
2018-10-17T17:50:07.459Z,75.10
2018-10-17T17:52:35.669Z,75.40
2018-10-17T17:55:05.677Z,75.80
2018-10-17T17:57:36.505Z,76.40
2018-10-17T18:00:05.203Z,76.20
2018-10-17T18:02:33.360Z,76.40
2018-10-17T18:05:01.759Z,76.60
2018-10-17T18:07:29.934Z,76.70
2018-10-17T18:09:58.221Z,76.90
2018-10-17T18:12:26.366Z,78.20
2018-10-17T18:14:54.536Z,77.90
2018-10-17T18:17:22.692Z,77.90
2018-10-17T18:19:50.880Z,77.70
2018-10-17T18:22:19.120Z,78.20
2018-10-17T18:24:47.261Z,78.50
2018-10-17T18:27:15.433Z,79.10
2018-10-17T18:29:43.625Z,80.00
2018-10-17T18:32:11.869Z,80.50
2018-10-17T18:34:40.143Z,80.70
2018-10-17T18:37:08.547Z,81.20
2018-10-17T18:39:36.759Z,81.70
2018-10-17T18:42:05.511Z,81.90
2018-10-17T18:44:33.877Z,82.10
2018-10-17T18:47:02.118Z,82.20
2018-10-17T18:49:30.388Z,82.50
2018-10-17T18:51:58.576Z,82.70
2018-10-17T18:54:26.875Z,83.10
2018-10-17T18:56:55.153Z,83.50
2018-10-17T18:59:23.379Z,83.30
2018-10-17T19:01:51.626Z,83.50
2018-10-17T19:04:19.868Z,83.90
2018-10-17T19:06:48.114Z,84.00
2018-10-17T19:09:16.522Z,84.30
2018-10-17T19:11:44.698Z,84.30
2018-10-17T19:14:12.939Z,84.50
2018-10-17T19:16:41.166Z,84.90
2018-10-17T19:19:09.670Z,84.80
2018-10-17T19:21:37.834Z,85.00
2018-10-17T19:24:06.197Z,85.10
2018-10-17T19:26:34.370Z,85.30
2018-10-17T19:29:02.511Z,85.40
2018-10-17T19:34:05.482Z,86.00
2018-10-17T19:36:33.785Z,86.60
2018-10-17T19:39:02.034Z,86.40
2018-10-17T19:41:30.183Z,86.80
2018-10-17T19:43:58.376Z,86.90
2018-10-17T19:46:26.557Z,87.10
2018-10-17T19:48:54.912Z,87.40
2018-10-17T19:51:23.181Z,88.00
2018-10-17T19:53:51.367Z,88.00
2018-10-17T19:56:19.557Z,88.30
2018-10-17T19:58:47.714Z,88.50
2018-10-17T20:01:15.930Z,88.30
2018-10-17T20:03:44.078Z,88.60
2018-10-17T20:06:12.230Z,88.80
2018-10-17T20:08:40.441Z,89.10
2018-10-17T20:11:08.618Z,89.30
2018-10-17T20:13:36.828Z,89.50
2018-10-17T20:16:05.048Z,89.60
2018-10-17T20:18:33.225Z,90.00
2018-10-17T20:21:01.482Z,90.20
2018-10-17T20:23:29.579Z,90.40
2018-10-17T20:25:57.761Z,90.50
2018-10-17T20:28:25.924Z,90.70
2018-10-17T20:31:00.649Z,90.80
2018-10-17T20:33:28.826Z,90.80
2018-10-17T20:35:57.070Z,91.00
2018-10-17T20:38:25.267Z,91.10
2018-10-17T20:40:53.407Z,91.70
2018-10-17T20:43:21.541Z,92.00
2018-10-17T20:45:49.721Z,92.50
2018-10-17T20:48:17.941Z,92.30
2018-10-17T20:50:46.147Z,92.70
2018-10-17T20:53:14.314Z,92.70
2018-10-17T20:55:42.494Z,93.00
2018-10-17T20:58:10.710Z,93.40
2018-10-17T21:00:38.811Z,93.70
2018-10-17T21:03:07.003Z,93.90
2018-10-17T21:05:35.154Z,94.20
2018-10-17T21:08:03.388Z,94.50
2018-10-17T21:10:31.507Z,94.70
2018-10-17T21:12:59.658Z,94.80
2018-10-17T21:15:27.838Z,94.90
2018-10-17T21:17:56.034Z,94.90
2018-10-17T21:20:24.206Z,94.90
2018-10-17T21:22:52.445Z,94.70
2018-10-17T21:25:20.615Z,94.90
2018-10-17T21:27:48.780Z,94.80
2018-10-17T21:30:16.949Z,94.80
2018-10-17T21:32:45.107Z,94.60
2018-10-17T21:35:13.290Z,94.70
2018-10-17T21:37:42.342Z,94.70
2018-10-17T21:40:11.573Z,94.80
2018-10-17T21:42:40.011Z,94.90
2018-10-17T21:45:08.238Z,95.00
2018-10-17T21:47:36.470Z,95.00
2018-10-17T21:50:05.383Z,95.20
2018-10-17T21:52:33.461Z,95.40
2018-10-17T21:55:01.630Z,95.20
2018-10-17T21:57:29.789Z,95.10
2018-10-17T21:59:57.955Z,95.00
2018-10-17T22:02:26.149Z,95.10
2018-10-17T22:04:54.386Z,95.30
2018-10-17T22:07:22.577Z,95.50
2018-10-17T22:09:50.876Z,96.10
2018-10-17T22:12:19.033Z,96.20
2018-10-17T22:14:47.235Z,96.20
2018-10-17T22:17:15.398Z,96.40
2018-10-17T22:19:43.668Z,96.50
2018-10-17T22:22:11.753Z,96.30
2018-10-17T22:24:39.945Z,95.90
2018-10-17T22:27:08.085Z,96.00
2018-10-17T22:29:36.269Z,96.10
2018-10-17T22:32:04.836Z,96.40
2018-10-17T22:34:32.946Z,96.50
2018-10-17T22:37:01.133Z,97.10
2018-10-17T22:39:29.329Z,96.90
2018-10-17T22:41:57.506Z,97.10
2018-10-17T22:44:25.688Z,97.20
2018-10-17T22:46:53.851Z,97.30
2018-10-17T22:49:22.070Z,97.30
2018-10-17T22:51:50.252Z,97.40
2018-10-17T22:54:18.418Z,97.50
2018-10-17T22:56:46.593Z,97.70
2018-10-17T22:59:14.767Z,97.80
2018-10-17T23:01:42.926Z,97.90
2018-10-17T23:04:11.082Z,98.20
2018-10-17T23:06:39.277Z,97.80
2018-10-17T23:09:09.491Z,97.90
2018-10-17T23:11:37.710Z,97.90
2018-10-17T23:14:06.383Z,97.90
2018-10-17T23:16:34.493Z,98.20
2018-10-17T23:19:02.767Z,98.50
2018-10-17T23:21:30.914Z,98.90
2018-10-17T23:23:59.213Z,99.10
2018-10-17T23:26:27.382Z,99.10
2018-10-17T23:28:55.545Z,99.10
2018-10-17T23:31:24.694Z,99.00
2018-10-17T23:33:52.978Z,99.00
2018-10-17T23:36:21.439Z,99.10
2018-10-17T23:38:49.676Z,99.30
2018-10-17T23:41:17.990Z,99.20
2018-10-17T23:43:46.135Z,99.00
2018-10-17T23:46:14.350Z,99.10
2018-10-17T23:48:42.550Z,99.10
2018-10-17T23:51:10.981Z,99.10
2018-10-17T23:53:39.144Z,99.20
2018-10-17T23:56:07.587Z,99.20
2018-10-17T23:58:35.723Z,99.20
